Time;durP1;ratioP1;P1;durP2;ratioP2;P2;SDS_P1;SDS_P2;PMS_P1;PMS_P2;Temp;Humidity;BMP_temperature;BMP_pressure;BME280_temperature;BME280_humidity;BME280_pressure;Samples;Min_cycle;Max_cycle;Signal;HPM_P1;HPM_P2
2022/06/27 00:01:57;;;;;;;3.85;1.75;;;;;;;17.65;84.55;93700.06;5042762;28;20057;-57
2022/06/27 00:04:24;;;;;;;2.97;1.80;;;;;;;17.55;85.29;93680.66;5049818;28;20061;-57
2022/06/27 00:06:50;;;;;;;3.78;1.80;;;;;;;17.27;87.30;93693.03;5051601;28;20564;-58
2022/06/27 00:09:17;;;;;;;3.90;2.30;;;;;;;17.13;90.14;93672.25;5048960;28;20048;-57
2022/06/27 00:11:44;;;;;;;4.13;2.30;;;;;;;17.09;90.29;93683.50;5050392;28;20037;-57
2022/06/27 00:14:11;;;;;;;4.95;2.40;;;;;;;17.25;90.32;93659.47;5051629;28;20075;-58
2022/06/27 00:16:38;;;;;;;3.65;1.75;;;;;;;17.36;88.86;93660.50;5050773;28;20410;-57
2022/06/27 00:19:15;;;;;;;2.28;1.13;;;;;;;17.41;86.29;93648.00;5026667;28;20037;-58
2022/06/27 00:21:42;;;;;;;2.05;1.08;;;;;;;17.64;84.86;93654.88;5050729;28;20043;-58
2022/06/27 00:24:08;;;;;;;2.17;1.20;;;;;;;17.71;83.89;93659.34;5037224;28;20045;-57
2022/06/27 00:26:35;;;;;;;2.15;1.05;;;;;;;17.67;83.78;93639.31;5010153;28;20046;-57
2022/06/27 00:29:02;;;;;;;1.95;0.90;;;;;;;17.60;83.21;93636.84;5011514;28;20038;-58
2022/06/27 00:31:29;;;;;;;2.10;0.70;;;;;;;17.63;83.26;93655.34;5027568;28;20279;-59
2022/06/27 00:33:56;;;;;;;1.83;0.88;;;;;;;17.58;83.33;93649.19;5032754;28;20049;-57
2022/06/27 00:36:23;;;;;;;2.70;0.80;;;;;;;17.70;82.24;93655.00;5039760;28;20033;-59
2022/06/27 00:38:50;;;;;;;2.00;0.95;;;;;;;17.80;83.26;93670.38;5049063;28;20421;-57
2022/06/27 00:41:17;;;;;;;2.00;1.00;;;;;;;17.80;83.86;93669.63;5050873;28;20045;-57
2022/06/27 00:43:45;;;;;;;1.92;0.80;;;;;;;17.75;84.30;93662.72;5037175;28;20155;-57
2022/06/27 00:46:12;;;;;;;1.60;0.60;;;;;;;17.78;83.56;93667.31;5050272;28;20041;-59
2022/06/27 00:48:39;;;;;;;1.60;0.67;;;;;;;17.78;83.83;93668.06;5049019;28;20068;-58
2022/06/27 00:51:06;;;;;;;2.78;0.80;;;;;;;17.75;84.91;93674.56;5033417;28;20196;-58
2022/06/27 00:53:34;;;;;;;2.22;0.90;;;;;;;17.73;84.50;93671.50;5049035;28;20041;-58
2022/06/27 00:56:01;;;;;;;2.25;1.05;;;;;;;17.80;85.04;93669.63;5050626;28;20045;-59
2022/06/27 00:58:27;;;;;;;1.95;1.08;;;;;;;17.84;84.61;93675.81;5049905;28;20040;-57
2022/06/27 01:00:54;;;;;;;2.33;0.80;;;;;;;17.81;85.02;93690.56;5036392;28;20049;-57
2022/06/27 01:03:21;;;;;;;2.63;1.00;;;;;;;17.67;84.42;93690.03;5048680;28;20175;-58
2022/06/27 01:05:51;;;;;;;2.00;0.95;;;;;;;17.67;85.17;93683.72;5049174;28;20049;-57
2022/06/27 01:08:20;;;;;;;1.92;1.00;;;;;;;17.61;85.63;93686.34;5050243;28;20048;-58
2022/06/27 01:10:48;;;;;;;2.50;1.00;;;;;;;17.67;85.13;93694.81;5027762;28;20305;-58
2022/06/27 01:13:15;;;;;;;2.43;0.90;;;;;;;17.65;84.55;93700.06;5050350;28;20033;-57
2022/06/27 01:15:43;;;;;;;3.03;1.20;;;;;;;17.69;85.13;93706.22;5049741;28;20043;-57
2022/06/27 01:18:10;;;;;;;2.30;1.10;;;;;;;17.56;85.63;93732.13;5050265;28;20126;-57
2022/06/27 01:20:40;;;;;;;2.67;1.27;;;;;;;17.42;87.06;93718.88;5031875;28;20526;-58
2022/06/27 01:23:07;;;;;;;3.22;1.20;;;;;;;17.22;87.22;93718.59;5050282;28;20044;-58
2022/06/27 01:25:35;;;;;;;4.20;1.17;;;;;;;17.32;86.58;93722.91;5033545;28;20054;-57
2022/06/27 01:28:04;;;;;;;2.20;1.10;;;;;;;17.40;85.86;93734.47;5015055;28;20046;-58
2022/06/27 01:30:31;;;;;;;2.28;1.20;;;;;;;17.50;86.22;93728.44;5027807;28;20087;-58
2022/06/27 01:32:58;;;;;;;2.22;1.17;;;;;;;17.56;86.12;93732.13;5026589;28;20425;-57
2022/06/27 01:35:24;;;;;;;2.40;1.45;;;;;;;17.51;87.83;93729.22;5011966;28;20127;-57
2022/06/27 01:37:51;;;;;;;4.20;1.30;;;;;;;17.15;88.65;93722.47;5038063;28;20045;-58
2022/06/27 01:40:18;;;;;;;2.88;1.50;;;;;;;16.85;91.10;93724.16;5022428;28;20067;-58
2022/06/27 01:42:45;;;;;;;5.28;1.55;;;;;;;16.73;91.00;93717.50;5016474;28;20056;-57
2022/06/27 01:45:11;;;;;;;2.90;1.63;;;;;;;16.51;92.41;93712.09;5018207;28;20045;-59
2022/06/27 01:47:38;;;;;;;3.72;1.70;;;;;;;16.25;93.83;93719.88;5020916;28;20049;-57
2022/06/27 01:50:05;;;;;;;2.57;1.50;;;;;;;16.38;93.57;93732.38;5017517;28;20045;-57
2022/06/27 01:52:34;;;;;;;3.53;1.70;;;;;;;16.40;93.56;93734.69;5024963;28;20057;-57
2022/06/27 01:55:01;;;;;;;4.45;1.90;;;;;;;16.33;93.71;93738.50;5029379;28;20045;-57
2022/06/27 01:57:26;;;;;;;4.18;1.90;;;;;;;16.29;94.62;93745.41;5028120;28;20510;-57
2022/06/27 01:59:52;;;;;;;3.47;2.20;;;;;;;16.44;93.77;93748.38;5025756;28;20448;-57
2022/06/27 02:02:19;;;;;;;3.55;2.20;;;;;;;16.43;94.24;93753.16;5026455;28;20053;-57
2022/06/27 02:04:47;;;;;;;4.25;2.17;;;;;;;16.62;93.40;93753.19;5048450;28;20199;-58
2022/06/27 02:07:16;;;;;;;4.23;1.87;;;;;;;16.60;92.40;93750.91;5049509;28;20045;-57
2022/06/27 02:09:44;;;;;;;3.92;1.70;;;;;;;16.67;91.80;93752.59;5046446;28;20150;-57
2022/06/27 02:12:22;;;;;;;2.80;1.58;;;;;;;16.71;91.47;93750.44;5049177;28;20045;-57
2022/06/27 02:14:53;;;;;;;2.67;1.63;;;;;;;16.70;91.10;93760.75;5028485;28;20053;-58
2022/06/27 02:17:21;;;;;;;2.40;1.60;;;;;;;16.76;90.75;93756.16;5029242;28;20033;-55
2022/06/27 02:19:48;;;;;;;2.63;1.53;;;;;;;16.75;90.54;93748.28;5029387;28;20076;-57
2022/06/27 02:22:15;;;;;;;3.33;2.30;;;;;;;16.65;90.74;93738.44;5029548;28;20123;-58
2022/06/27 02:24:43;;;;;;;23.05;15.60;;;;;;;16.58;91.21;93740.28;5029236;28;20067;-58
2022/06/27 02:27:10;;;;;;;5.45;3.25;;;;;;;16.65;90.75;93746.75;5020304;28;20037;-57
2022/06/27 02:29:38;;;;;;;3.78;1.80;;;;;;;16.55;91.16;93745.94;5015486;28;20054;-57
2022/06/27 02:32:06;;;;;;;3.60;1.70;;;;;;;16.51;90.90;93743.31;5029172;28;20522;-58
2022/06/27 02:34:35;;;;;;;3.65;1.98;;;;;;;16.54;90.66;93727.78;5022128;28;20068;-57
2022/06/27 02:37:02;;;;;;;4.00;1.95;;;;;;;16.55;90.47;93724.56;5042834;28;20064;-60
2022/06/27 02:39:31;;;;;;;3.50;2.35;;;;;;;16.58;90.41;93723.66;5048537;28;20049;-58
2022/06/27 02:41:59;;;;;;;2.85;1.75;;;;;;;16.47;90.87;93719.78;5049129;28;20064;-58
2022/06/27 02:44:26;;;;;;;3.73;2.03;;;;;;;16.37;90.55;93716.97;5048783;28;20052;-58
2022/06/27 02:46:54;;;;;;;2.92;1.80;;;;;;;16.33;91.16;93721.13;5049186;28;20098;-58
2022/06/27 02:49:21;;;;;;;3.78;1.70;;;;;;;16.23;91.54;93733.41;5048551;28;20503;-60
2022/06/27 02:52:09;;;;;;;3.15;2.00;;;;;;;16.20;92.13;93723.22;5048798;28;20041;-58
2022/06/27 02:54:41;;;;;;;3.45;2.10;;;;;;;16.28;91.63;93725.28;5043879;28;20415;-58
2022/06/27 02:57:17;;;;;;;3.13;2.00;;;;;;;16.28;91.38;93730.81;5029069;28;20432;-58
2022/06/27 02:59:48;;;;;;;3.33;1.60;;;;;;;16.31;91.14;93726.34;5034500;28;20375;-58
2022/06/27 03:02:16;;;;;;;2.83;1.67;;;;;;;16.26;91.01;93721.41;5045402;28;20045;-58
2022/06/27 03:04:43;;;;;;;3.05;2.05;;;;;;;16.30;90.53;93731.13;5038341;28;20466;-58
2022/06/27 03:07:10;;;;;;;3.40;1.83;;;;;;;16.22;90.60;93732.63;5024856;28;20045;-58
2022/06/27 03:09:37;;;;;;;4.50;1.50;;;;;;;16.10;90.68;93736.28;5046734;28;20041;-58
2022/06/27 03:12:04;;;;;;;4.43;2.63;;;;;;;15.99;91.63;93733.91;5032610;28;20037;-58
2022/06/27 03:14:30;;;;;;;6.50;3.95;;;;;;;16.00;91.50;93741.00;5031889;28;20049;-58
2022/06/27 03:16:57;;;;;;;3.65;1.77;;;;;;;16.14;91.13;93736.91;5047640;28;20055;-58
2022/06/27 03:19:24;;;;;;;4.38;1.30;;;;;;;16.24;90.25;93737.69;5045046;28;20048;-59
2022/06/27 03:21:51;;;;;;;4.00;1.60;;;;;;;16.28;89.69;93730.81;5044244;28;20047;-58
2022/06/27 03:24:17;;;;;;;2.95;1.50;;;;;;;16.25;89.91;93730.94;5050645;28;20049;-58
2022/06/27 03:26:44;;;;;;;3.97;1.52;;;;;;;16.24;89.95;93723.84;5051332;28;20044;-58
2022/06/27 03:29:11;;;;;;;3.95;1.48;;;;;;;16.36;89.46;93734.06;5047829;28;20051;-60
2022/06/27 03:31:38;;;;;;;3.45;1.40;;;;;;;16.34;89.62;93736.53;5042360;28;20517;-59
2022/06/27 03:34:05;;;;;;;5.33;1.30;;;;;;;16.41;89.31;93738.22;5042011;28;20120;-59
2022/06/27 03:36:31;;;;;;;2.50;1.30;;;;;;;16.39;89.22;93749.75;5050138;28;20113;-58
2022/06/27 03:38:58;;;;;;;2.55;1.60;;;;;;;16.36;89.63;93745.91;5052027;28;20047;-56
2022/06/27 03:41:25;;;;;;;3.78;1.40;;;;;;;16.49;89.34;93756.09;5051530;28;20394;-59
2022/06/27 03:43:52;;;;;;;3.80;1.70;;;;;;;16.61;89.02;93760.72;5050684;28;20041;-59
2022/06/27 03:46:18;;;;;;;3.67;1.90;;;;;;;16.56;89.44;93751.03;5052013;28;20068;-58
2022/06/27 03:51:30;;;;;;;3.00;1.88;;;;;;;16.54;89.10;93750.72;5050957;28;20045;-58
2022/06/27 03:53:57;;;;;;;3.00;2.00;;;;;;;16.63;89.15;93736.13;5050409;28;20117;-58
2022/06/27 03:56:24;;;;;;;3.63;2.10;;;;;;;16.73;88.92;93726.59;5027240;28;20049;-58
2022/06/27 03:58:50;;;;;;;3.13;1.80;;;;;;;16.86;88.31;93725.69;5029302;28;20037;-59
2022/06/27 04:01:17;;;;;;;3.60;2.05;;;;;;;16.96;87.66;93718.91;5033285;28;20047;-58
2022/06/27 04:03:44;;;;;;;3.70;2.10;;;;;;;16.97;87.25;93723.25;5039390;28;20053;-58
2022/06/27 04:06:11;;;;;;;3.25;2.10;;;;;;;17.09;86.74;93725.09;5039051;28;20045;-59
2022/06/27 04:08:38;;;;;;;5.45;2.10;;;;;;;17.18;86.38;93724.31;5049896;28;20049;-58
2022/06/27 04:11:04;;;;;;;15.30;2.37;;;;;;;17.20;86.49;93723.84;5037633;28;20045;-58
2022/06/27 04:13:31;;;;;;;6.10;2.33;;;;;;;17.38;85.80;93723.81;5038980;28;20421;-58
2022/06/27 04:15:58;;;;;;;4.68;2.38;;;;;;;17.44;84.51;93721.19;5049071;28;20060;-59
2022/06/27 04:18:24;;;;;;;4.10;2.22;;;;;;;17.54;84.62;93725.50;5051042;28;20040;-59
2022/06/27 04:20:52;;;;;;;3.85;2.20;;;;;;;17.72;83.90;93733.00;5049608;28;20045;-60
2022/06/27 04:23:19;;;;;;;4.20;2.50;;;;;;;17.53;83.85;93735.84;5048560;28;20060;-57
2022/06/27 04:25:46;;;;;;;3.70;2.50;;;;;;;17.75;83.53;93729.31;5028833;28;20744;-56
2022/06/27 04:28:13;;;;;;;4.95;3.13;;;;;;;17.77;82.75;93724.06;5030816;28;20045;-57
2022/06/27 04:30:40;;;;;;;4.75;3.05;;;;;;;17.91;82.09;93720.66;5020227;28;20045;-56
2022/06/27 04:33:08;;;;;;;6.10;2.95;;;;;;;18.11;81.16;93722.91;5019354;28;20366;-56
2022/06/27 04:35:36;;;;;;;5.07;3.30;;;;;;;17.95;81.01;93721.25;5030710;28;20048;-57
2022/06/27 04:38:03;;;;;;;4.50;3.28;;;;;;;18.16;80.06;93718.69;5031129;28;20053;-57
2022/06/27 04:40:33;;;;;;;5.65;3.90;;;;;;;18.43;77.96;93719.81;5030250;28;20107;-57
2022/06/27 04:43:08;;;;;;;4.45;3.17;;;;;;;19.32;75.60;93729.25;5029434;28;20056;-58
2022/06/27 04:45:35;;;;;;;3.75;2.83;;;;;;;19.21;74.32;93722.69;5030252;28;20045;-56
2022/06/27 04:48:04;;;;;;;5.90;2.50;;;;;;;19.02;75.79;93728.41;5030744;28;20677;-57
2022/06/27 04:50:32;;;;;;;4.25;2.50;;;;;;;18.68;76.97;93730.47;5028881;28;20417;-57
2022/06/27 04:53:00;;;;;;;3.72;2.50;;;;;;;18.13;79.53;93737.09;5030388;28;20037;-57
2022/06/27 04:55:27;;;;;;;4.05;2.38;;;;;;;18.19;79.92;93733.66;4996266;28;20038;-57
2022/06/27 04:57:54;;;;;;;5.15;2.65;;;;;;;18.24;79.17;93741.34;5020069;28;20050;-56
2022/06/27 05:00:20;;;;;;;3.77;2.50;;;;;;;18.28;79.63;93747.50;5019825;28;20521;-56
2022/06/27 05:02:48;;;;;;;3.90;2.50;;;;;;;18.06;80.63;93744.97;5021739;28;20045;-57
2022/06/27 05:05:15;;;;;;;4.63;3.03;;;;;;;17.81;81.09;93744.09;5021663;28;20037;-57
2022/06/27 05:07:44;;;;;;;3.78;2.80;;;;;;;18.19;79.38;93747.53;5029837;28;20512;-57
2022/06/27 05:10:11;;;;;;;3.97;2.70;;;;;;;18.77;77.75;93747.09;5041254;28;20068;-57
2022/06/27 05:12:37;;;;;;;4.20;2.90;;;;;;;18.95;76.26;93745.44;5039796;28;20405;-57
2022/06/27 05:15:05;;;;;;;5.70;2.92;;;;;;;19.08;75.31;93743.19;5046397;28;20075;-57
2022/06/27 05:17:32;;;;;;;4.60;2.92;;;;;;;19.50;73.72;93750.59;5049681;28;20053;-57
2022/06/27 05:19:58;;;;;;;4.00;2.80;;;;;;;20.41;69.72;93750.09;5050083;28;20041;-57
2022/06/27 05:22:25;;;;;;;4.35;2.90;;;;;;;19.89;71.92;93758.13;5049456;28;20045;-61
2022/06/27 05:24:52;;;;;;;6.47;2.87;;;;;;;21.53;67.05;93744.47;5049641;28;20059;-59
2022/06/27 05:27:19;;;;;;;3.85;2.78;;;;;;;22.77;61.32;93750.34;5047797;28;20074;-60
2022/06/27 05:29:45;;;;;;;4.03;2.40;;;;;;;23.32;59.63;93746.31;5020814;28;21987;-59
2022/06/27 05:32:12;;;;;;;3.47;2.45;;;;;;;21.10;65.92;93756.13;5024325;28;20048;-59
2022/06/27 05:34:39;;;;;;;4.65;2.53;;;;;;;20.88;67.65;93755.84;5018457;28;20072;-59
2022/06/27 05:37:07;;;;;;;3.70;2.80;;;;;;;20.38;69.43;93762.19;5016754;28;20076;-60
2022/06/27 05:39:34;;;;;;;3.90;2.83;;;;;;;21.60;66.71;93760.03;5008797;28;20498;-59
2022/06/27 05:42:03;;;;;;;4.80;2.50;;;;;;;22.31;63.18;93761.22;5009589;28;20394;-60
2022/06/27 05:44:30;;;;;;;4.28;2.38;;;;;;;20.43;68.97;93760.78;5008994;28;20041;-59
2022/06/27 05:46:58;;;;;;;4.95;2.70;;;;;;;20.33;69.84;93768.47;5009495;28;20041;-60
2022/06/27 05:49:25;;;;;;;3.73;2.60;;;;;;;20.41;70.16;93761.25;5008728;28;20376;-61
2022/06/27 05:51:53;;;;;;;4.30;2.63;;;;;;;21.99;64.61;93762.44;5009188;28;20042;-59
2022/06/27 05:54:23;;;;;;;4.40;2.80;;;;;;;24.42;58.15;93755.97;5008234;28;20071;-59
2022/06/27 05:56:50;;;;;;;4.78;2.22;;;;;;;26.09;52.04;93750.34;5020556;28;20040;-60
2022/06/27 05:59:17;;;;;;;2.92;2.00;;;;;;;27.08;48.41;93754.16;5017133;28;20053;-59
2022/06/27 06:01:47;;;;;;;3.80;2.10;;;;;;;26.23;49.91;93745.66;5026388;28;20544;-57
2022/06/27 06:04:14;;;;;;;2.80;2.00;;;;;;;28.14;46.53;93747.72;5019308;28;20065;-57
2022/06/27 06:06:43;;;;;;;3.97;2.00;;;;;;;29.37;43.47;93749.03;5027324;28;20049;-57
2022/06/27 06:09:11;;;;;;;4.43;1.80;;;;;;;30.26;41.47;93756.91;5047717;28;20052;-57
2022/06/27 06:11:39;;;;;;;2.58;1.70;;;;;;;28.54;43.87;93761.28;5040447;28;20041;-57
2022/06/27 06:14:08;;;;;;;4.30;1.60;;;;;;;28.81;43.79;93757.19;5047932;28;20037;-57
2022/06/27 06:16:37;;;;;;;3.30;1.50;;;;;;;30.46;40.97;93755.44;5049035;28;20083;-57
2022/06/27 06:19:04;;;;;;;2.20;1.30;;;;;;;31.98;37.05;93757.13;5048682;28;20045;-58
2022/06/27 06:21:31;;;;;;;2.20;1.20;;;;;;;31.67;37.47;93767.56;5048372;28;20106;-59
2022/06/27 06:23:59;;;;;;;2.63;1.52;;;;;;;29.70;41.54;93772.25;5047613;28;20367;-60
2022/06/27 06:26:26;;;;;;;3.13;1.50;;;;;;;29.72;40.54;93761.19;5048403;28;20504;-58
2022/06/27 06:28:53;;;;;;;2.30;1.40;;;;;;;28.92;42.79;93772.44;5047785;28;20059;-57
2022/06/27 06:31:24;;;;;;;2.63;1.20;;;;;;;28.94;42.74;93769.84;5043825;28;20053;-57
2022/06/27 06:33:52;;;;;;;2.50;1.60;;;;;;;27.43;46.03;93774.28;5027715;28;20052;-60
2022/06/27 06:36:21;;;;;;;2.35;1.30;;;;;;;30.39;39.93;93781.63;5033130;28;20396;-58
2022/06/27 06:38:50;;;;;;;3.43;1.40;;;;;;;24.55;53.71;93783.53;5027746;28;20065;-57
2022/06/27 06:41:17;;;;;;;4.15;1.98;;;;;;;22.99;59.72;93789.66;5024835;28;20060;-58
2022/06/27 06:43:48;;;;;;;3.95;1.63;;;;;;;24.05;56.40;93790.63;5026701;28;20045;-61
2022/06/27 06:46:15;;;;;;;3.35;1.65;;;;;;;22.91;59.54;93792.16;5032949;28;20405;-60
2022/06/27 06:48:42;;;;;;;3.10;1.70;;;;;;;22.25;62.44;93793.94;5029940;28;20049;-59
2022/06/27 06:51:16;;;;;;;3.40;1.73;;;;;;;23.70;59.02;93781.34;5019522;28;20042;-59
2022/06/27 06:53:45;;;;;;;2.50;1.60;;;;;;;23.90;57.20;93783.22;5023296;28;20045;-59
2022/06/27 06:56:12;;;;;;;3.00;2.08;;;;;;;23.87;57.57;93775.81;5033003;28;20053;-59
2022/06/27 06:58:39;;;;;;;4.15;1.80;;;;;;;24.44;56.17;93784.28;5032443;28;20452;-59
2022/06/27 07:01:06;;;;;;;3.30;1.80;;;;;;;24.57;55.34;93789.41;5032777;28;20042;-60
2022/06/27 07:03:34;;;;;;;2.70;1.90;;;;;;;24.39;55.45;93797.03;5032664;28;20049;-59
2022/06/27 07:06:03;;;;;;;5.18;2.20;;;;;;;24.35;55.68;93787.34;5027592;28;20072;-59
2022/06/27 07:08:33;;;;;;;3.88;2.50;;;;;;;25.62;51.73;93811.44;5020192;28;20038;-59
2022/06/27 07:11:02;;;;;;;3.53;2.30;;;;;;;28.92;44.80;93800.69;5016272;28;20060;-60
2022/06/27 07:13:29;;;;;;;3.25;1.95;;;;;;;29.29;42.39;93802.63;5032075;28;20057;-58
2022/06/27 07:15:56;;;;;;;2.60;1.80;;;;;;;28.24;44.16;93822.22;5032755;28;20099;-57
2022/06/27 07:18:24;;;;;;;2.88;1.60;;;;;;;28.87;42.36;93830.53;5030708;28;20041;-57
2022/06/27 07:20:52;;;;;;;3.25;1.60;;;;;;;28.53;43.50;93835.97;5031058;28;20049;-58
2022/06/27 07:23:20;;;;;;;3.08;1.65;;;;;;;27.59;44.87;93845.84;5032487;28;20060;-58
2022/06/27 07:25:47;;;;;;;3.47;1.40;;;;;;;28.73;42.69;93838.19;5029918;28;20044;-57
2022/06/27 07:28:15;;;;;;;3.10;1.23;;;;;;;27.82;44.02;93858.38;5032512;28;20071;-56
2022/06/27 07:30:43;;;;;;;2.47;1.20;;;;;;;26.94;45.96;93856.69;5031707;28;20038;-57
2022/06/27 07:33:11;;;;;;;2.58;1.20;;;;;;;26.91;46.17;93854.94;5016731;28;20043;-57
2022/06/27 07:35:37;;;;;;;2.40;0.95;;;;;;;26.15;47.77;93859.25;5018524;28;20099;-57
2022/06/27 07:38:05;;;;;;;3.13;1.20;;;;;;;25.00;50.83;93859.31;5038260;28;20033;-60
2022/06/27 07:40:34;;;;;;;3.43;1.40;;;;;;;25.05;50.67;93859.31;5043012;28;20045;-59
2022/06/27 07:43:01;;;;;;;7.13;1.58;;;;;;;25.26;50.51;93857.00;5045524;28;20433;-59
2022/06/27 07:45:28;;;;;;;2.75;1.58;;;;;;;25.08;50.52;93863.88;5051282;28;20246;-59
2022/06/27 07:47:55;;;;;;;3.75;1.70;;;;;;;24.99;51.01;93860.56;5051714;28;20053;-60
2022/06/27 07:50:37;;;;;;;2.50;1.40;;;;;;;25.01;50.99;93861.59;5033142;28;20451;-58
2022/06/27 07:53:12;;;;;;;3.20;1.50;;;;;;;26.16;47.89;93864.38;5045212;28;20049;-60
2022/06/27 07:55:46;;;;;;;2.38;1.30;;;;;;;27.04;45.84;93869.13;5051233;28;20063;-59
2022/06/27 07:58:19;;;;;;;3.17;1.20;;;;;;;25.87;48.11;93865.75;5051741;28;20374;-59
2022/06/27 08:00:48;;;;;;;2.90;1.10;;;;;;;26.92;46.16;93881.03;5051158;28;20056;-60
2022/06/27 08:06:10;;;;;;;3.10;1.00;;;;;;;26.41;48.00;93884.19;5023533;28;20069;-59
2022/06/27 08:08:39;;;;;;;2.08;1.02;;;;;;;25.00;49.85;93876.16;5025164;28;20150;-60
2022/06/27 08:11:09;;;;;;;2.25;0.90;;;;;;;26.58;47.39;93870.00;5008498;28;20045;-59
2022/06/27 08:13:36;;;;;;;3.20;1.00;;;;;;;26.44;46.38;93875.47;5031081;28;20052;-58
2022/06/27 08:16:04;;;;;;;2.42;1.10;;;;;;;24.31;51.58;93875.31;5030865;28;20064;-59
2022/06/27 08:18:38;;;;;;;2.37;1.00;;;;;;;24.48;51.93;93883.72;5028401;28;20050;-60
2022/06/27 08:21:34;;;;;;;3.22;1.10;;;;;;;27.17;46.15;93876.97;5006904;28;20057;-59
2022/06/27 08:24:12;;;;;;;3.35;1.20;;;;;;;25.78;49.29;93868.88;5025882;28;21582;-59
2022/06/27 08:26:39;;;;;;;3.33;1.30;;;;;;;25.07;51.09;93873.59;5030272;28;20159;-59
2022/06/27 08:29:07;;;;;;;2.28;1.20;;;;;;;24.93;51.25;93888.63;5031098;28;20061;-60
2022/06/27 08:31:34;;;;;;;2.97;1.10;;;;;;;25.74;48.89;93885.22;5025615;28;20046;-59
2022/06/27 08:34:03;;;;;;;2.20;1.30;;;;;;;24.50;51.52;93888.88;5022573;28;20068;-59
2022/06/27 08:36:33;;;;;;;2.42;1.23;;;;;;;27.01;46.50;93895.53;5024587;28;20037;-60
2022/06/27 08:39:07;;;;;;;3.10;1.27;;;;;;;26.15;48.10;93902.19;5028350;28;20041;-60
2022/06/27 08:41:35;;;;;;;3.03;1.17;;;;;;;26.79;47.03;93904.94;5023249;28;20041;-59
2022/06/27 08:44:04;;;;;;;4.13;1.90;;;;;;;24.19;53.17;93895.41;5030939;28;20448;-60
2022/06/27 08:46:31;;;;;;;4.00;1.58;;;;;;;22.56;57.20;93895.13;5026008;28;20045;-60
2022/06/27 08:48:58;;;;;;;3.40;1.50;;;;;;;22.30;59.29;93893.13;5042924;28;20474;-58
2022/06/27 08:51:27;;;;;;;2.33;1.50;;;;;;;23.28;56.57;93886.59;5026029;28;20042;-59
2022/06/27 08:53:55;;;;;;;2.20;1.42;;;;;;;24.15;54.43;93883.66;5030370;28;20041;-58
2022/06/27 08:56:24;;;;;;;2.87;1.47;;;;;;;25.72;50.67;93882.94;5030000;28;20041;-57
2022/06/27 08:58:52;;;;;;;3.10;1.80;;;;;;;25.13;50.09;93879.19;5028824;28;20043;-59
2022/06/27 09:01:22;;;;;;;3.60;1.42;;;;;;;24.06;52.55;93888.22;5030386;28;20076;-59
2022/06/27 09:04:00;;;;;;;3.13;1.55;;;;;;;24.12;52.75;93896.66;5036140;28;20072;-60
2022/06/27 09:06:42;;;;;;;4.40;1.30;;;;;;;28.62;43.45;93886.41;5019742;28;20046;-60
2022/06/27 09:09:11;;;;;;;2.50;1.13;;;;;;;26.44;46.50;93889.53;5016253;28;20564;-60
2022/06/27 09:11:41;;;;;;;2.65;1.25;;;;;;;24.61;51.60;93904.94;5020116;28;20048;-60
2022/06/27 09:14:33;;;;;;;3.00;1.23;;;;;;;25.48;50.21;93901.13;5027763;28;20048;-60
2022/06/27 09:17:02;;;;;;;3.53;1.23;;;;;;;26.06;47.61;93902.53;5033723;28;20844;-59
2022/06/27 09:19:55;;;;;;;2.53;1.30;;;;;;;26.12;47.80;93903.25;5049753;28;20060;-61
2022/06/27 09:22:25;;;;;;;3.80;1.30;;;;;;;27.11;45.57;93901.63;5049754;28;20456;-58
2022/06/27 09:25:09;;;;;;;2.85;1.48;;;;;;;25.62;48.98;93898.56;5049936;28;20041;-60
2022/06/27 09:27:47;;;;;;;3.80;1.65;;;;;;;25.45;48.42;93901.38;5049586;28;20075;-59
2022/06/27 09:30:17;;;;;;;3.67;1.50;;;;;;;25.23;48.59;93896.56;5049941;28;20044;-59
2022/06/27 09:32:45;;;;;;;4.55;1.40;;;;;;;25.08;50.08;93894.75;5048017;28;20056;-59
2022/06/27 09:35:32;;;;;;;3.13;1.40;;;;;;;27.78;43.54;93903.03;5038044;28;20064;-60
2022/06/27 09:38:06;;;;;;;2.17;1.25;;;;;;;27.09;44.15;93909.84;5028615;28;20748;-60
2022/06/27 09:40:35;;;;;;;3.70;1.30;;;;;;;27.34;43.89;93909.91;5018610;28;20045;-60
2022/06/27 09:43:05;;;;;;;4.53;1.40;;;;;;;28.96;40.46;93908.50;5019650;28;20371;-60
2022/06/27 09:45:33;;;;;;;3.47;1.45;;;;;;;25.80;47.94;93919.72;5029418;28;20042;-60
2022/06/27 09:48:05;;;;;;;3.80;1.33;;;;;;;27.37;44.73;93920.13;5015830;28;20046;-60
2022/06/27 09:50:36;;;;;;;3.47;1.30;;;;;;;25.84;48.24;93929.41;5017287;28;20045;-61
2022/06/27 09:53:04;;;;;;;4.57;1.42;;;;;;;26.58;45.95;93924.28;5023763;28;20555;-60
2022/06/27 09:55:31;;;;;;;3.95;1.30;;;;;;;27.80;42.95;93934.28;5029044;28;20508;-60
2022/06/27 09:57:59;;;;;;;2.35;1.20;;;;;;;31.29;36.45;93926.88;5028456;28;20119;-62
2022/06/27 10:00:27;;;;;;;2.10;1.20;;;;;;;29.66;38.65;93930.97;5029198;28;20053;-60
2022/06/27 10:02:59;;;;;;;2.95;1.40;;;;;;;28.76;41.56;93941.63;5028174;28;20037;-61
2022/06/27 10:05:26;;;;;;;2.63;1.40;;;;;;;27.71;43.51;93948.75;5027633;28;20053;-60
2022/06/27 10:07:59;;;;;;;3.25;1.40;;;;;;;27.10;44.16;93960.00;5029328;28;20041;-61
2022/06/27 10:10:29;;;;;;;3.55;1.60;;;;;;;26.95;45.13;93970.13;5027356;28;20044;-60
2022/06/27 10:13:03;;;;;;;2.60;1.40;;;;;;;26.65;45.98;93974.38;5028794;28;20041;-59
2022/06/27 10:15:32;;;;;;;2.30;1.42;;;;;;;27.12;45.78;93981.25;5029051;28;20044;-59
2022/06/27 10:18:03;;;;;;;3.28;1.50;;;;;;;26.74;45.63;93978.91;5029525;28;20046;-59
2022/06/27 10:20:33;;;;;;;3.75;1.42;;;;;;;27.02;45.64;93983.63;5029154;28;20049;-59
2022/06/27 10:23:03;;;;;;;3.67;1.75;;;;;;;26.70;46.17;93987.66;5029530;28;20041;-58
2022/06/27 10:25:29;;;;;;;3.93;1.50;;;;;;;26.93;44.74;93984.72;5027212;28;20410;-59
2022/06/27 10:28:12;;;;;;;3.47;1.60;;;;;;;26.95;45.15;93987.00;5029655;28;20049;-58
2022/06/27 10:30:58;;;;;;;3.15;1.65;;;;;;;25.53;48.57;93981.06;5028839;28;20063;-59
2022/06/27 10:33:24;;;;;;;3.00;1.70;;;;;;;25.03;49.55;93976.19;5022201;28;20038;-59
2022/06/27 10:36:10;;;;;;;4.07;1.90;;;;;;;23.86;52.74;93990.06;5037903;28;20041;-60
2022/06/27 10:38:40;;;;;;;3.37;1.80;;;;;;;24.24;52.63;93985.16;5047169;28;20115;-58
2022/06/27 10:41:11;;;;;;;3.47;1.80;;;;;;;24.65;51.86;93989.66;5017710;28;20052;-59
2022/06/27 10:43:48;;;;;;;4.35;1.90;;;;;;;23.93;52.93;94003.63;5023766;28;20050;-60
2022/06/27 10:46:15;;;;;;;4.05;2.03;;;;;;;23.66;54.18;94004.97;5029398;28;20034;-60
2022/06/27 10:48:42;;;;;;;2.88;1.83;;;;;;;23.79;53.41;94001.75;5028759;28;20053;-59
2022/06/27 10:51:18;;;;;;;3.30;2.00;;;;;;;23.13;55.79;94001.50;5029218;28;20041;-58
2022/06/27 10:53:46;;;;;;;5.03;1.98;;;;;;;23.25;56.12;94001.59;5028699;28;20577;-58
2022/06/27 10:56:31;;;;;;;3.55;1.98;;;;;;;23.52;55.92;94005.88;5029231;28;20051;-58
2022/06/27 10:59:13;;;;;;;4.22;2.10;;;;;;;22.63;58.10;94004.56;5023785;28;20050;-58
2022/06/27 11:02:02;;;;;;;4.13;2.17;;;;;;;22.38;58.92;94008.09;5012485;28;20091;-59
2022/06/27 11:04:32;;;;;;;4.30;2.33;;;;;;;21.81;60.40;94012.16;5026441;28;20053;-59
2022/06/27 11:07:07;;;;;;;3.95;2.10;;;;;;;21.58;61.55;94017.44;5027678;28;20038;-59
2022/06/27 11:09:37;;;;;;;3.50;2.20;;;;;;;21.67;60.91;94020.13;5031547;28;20049;-58
2022/06/27 11:12:06;;;;;;;3.30;2.20;;;;;;;21.83;60.69;94016.03;5048978;28;20051;-58
2022/06/27 11:14:52;;;;;;;3.38;2.20;;;;;;;22.44;59.42;94018.09;5048269;28;20073;-59
2022/06/27 11:17:40;;;;;;;3.80;2.30;;;;;;;21.67;61.59;94020.13;5040099;28;20045;-58
2022/06/27 11:20:14;;;;;;;3.60;2.13;;;;;;;21.49;62.04;94025.91;5046028;28;20037;-59
2022/06/27 11:23:02;;;;;;;3.20;2.00;;;;;;;21.06;64.25;94033.84;5028819;28;21134;-58
2022/06/27 11:25:30;;;;;;;3.47;2.00;;;;;;;21.70;62.44;94026.75;5031904;28;20478;-58
2022/06/27 11:33:38;;;;;;;3.20;2.00;;;;;;;21.46;62.20;94024.88;5021315;28;20147;-58
2022/06/27 11:36:06;;;;;;;3.72;2.05;;;;;;;21.40;62.41;94028.81;5020292;28;20114;-60
2022/06/27 11:38:44;;;;;;;3.70;2.22;;;;;;;21.12;63.25;94034.69;5031557;28;20041;-59
2022/06/27 11:41:13;;;;;;;4.22;2.40;;;;;;;20.64;65.21;94032.84;5032065;28;20046;-59
2022/06/27 11:43:50;;;;;;;4.67;2.33;;;;;;;21.10;63.81;94032.38;5031452;28;20391;-58
2022/06/27 11:46:45;;;;;;;2.88;2.10;;;;;;;20.84;63.89;94040.56;5031914;28;20049;-60
2022/06/27 11:49:20;;;;;;;3.20;2.22;;;;;;;20.82;63.91;94042.28;5025380;28;21371;-58
2022/06/27 11:51:48;;;;;;;5.57;2.33;;;;;;;20.89;63.16;94047.50;5020489;28;20585;-59
2022/06/27 11:54:18;;;;;;;3.40;2.28;;;;;;;20.37;64.77;94060.94;5019574;28;20438;-58
2022/06/27 11:56:50;;;;;;;3.83;2.30;;;;;;;20.26;64.87;94055.88;5031510;28;20045;-59